sensor_id;sensor_type;location;lat;lon;timestamp;P1;durP1;ratioP1;P2;durP2;ratioP2
7013;SDS011;3547;50.774;12.918;2023-09-08T00:00:38;3.50;;;2.80;;
7013;SDS011;3547;50.774;12.918;2023-09-08T00:03:04;3.88;;;2.90;;
7013;SDS011;3547;50.774;12.918;2023-09-08T00:05:30;4.70;;;3.30;;
7013;SDS011;3547;50.774;12.918;2023-09-08T00:07:56;2.90;;;2.53;;
7013;SDS011;3547;50.774;12.918;2023-09-08T00:10:22;4.35;;;3.40;;
7013;SDS011;3547;50.774;12.918;2023-09-08T00:12:48;4.53;;;2.60;;
7013;SDS011;3547;50.774;12.918;2023-09-08T00:15:15;5.35;;;3.10;;
7013;SDS011;3547;50.774;12.918;2023-09-08T00:17:41;3.83;;;2.83;;
7013;SDS011;3547;50.774;12.918;2023-09-08T00:20:07;4.22;;;3.30;;
7013;SDS011;3547;50.774;12.918;2023-09-08T00:22:34;3.28;;;2.67;;
7013;SDS011;3547;50.774;12.918;2023-09-08T00:25:01;4.30;;;3.10;;
7013;SDS011;3547;50.774;12.918;2023-09-08T00:30:50;3.75;;;2.78;;
7013;SDS011;3547;50.774;12.918;2023-09-08T00:33:16;3.30;;;2.95;;
7013;SDS011;3547;50.774;12.918;2023-09-08T00:35:48;3.53;;;2.65;;
7013;SDS011;3547;50.774;12.918;2023-09-08T00:38:15;4.32;;;3.42;;
7013;SDS011;3547;50.774;12.918;2023-09-08T00:40:41;3.20;;;2.08;;
7013;SDS011;3547;50.774;12.918;2023-09-08T00:43:07;3.00;;;2.63;;
7013;SDS011;3547;50.774;12.918;2023-09-08T00:45:35;4.15;;;3.13;;
7013;SDS011;3547;50.774;12.918;2023-09-08T00:48:06;5.57;;;3.47;;
7013;SDS011;3547;50.774;12.918;2023-09-08T00:50:32;5.47;;;2.78;;
7013;SDS011;3547;50.774;12.918;2023-09-08T00:53:01;3.03;;;2.70;;
7013;SDS011;3547;50.774;12.918;2023-09-08T00:55:28;4.75;;;2.83;;
7013;SDS011;3547;50.774;12.918;2023-09-08T00:57:54;3.17;;;2.83;;
7013;SDS011;3547;50.774;12.918;2023-09-08T01:00:21;3.63;;;3.13;;
7013;SDS011;3547;50.774;12.918;2023-09-08T01:02:47;3.20;;;2.83;;
7013;SDS011;3547;50.774;12.918;2023-09-08T01:05:13;2.60;;;2.38;;
7013;SDS011;3547;50.774;12.918;2023-09-08T01:07:40;3.70;;;3.10;;
7013;SDS011;3547;50.774;12.918;2023-09-08T01:10:06;5.25;;;3.63;;
7013;SDS011;3547;50.774;12.918;2023-09-08T01:12:33;5.13;;;2.85;;
7013;SDS011;3547;50.774;12.918;2023-09-08T01:15:01;4.07;;;2.85;;
7013;SDS011;3547;50.774;12.918;2023-09-08T01:17:27;4.03;;;3.25;;
7013;SDS011;3547;50.774;12.918;2023-09-08T01:19:55;4.07;;;3.00;;
7013;SDS011;3547;50.774;12.918;2023-09-08T01:25:23;3.42;;;3.00;;
7013;SDS011;3547;50.774;12.918;2023-09-08T01:27:53;4.18;;;3.00;;
7013;SDS011;3547;50.774;12.918;2023-09-08T01:30:23;4.07;;;2.92;;
7013;SDS011;3547;50.774;12.918;2023-09-08T01:32:52;3.40;;;2.47;;
7013;SDS011;3547;50.774;12.918;2023-09-08T01:35:19;4.47;;;2.90;;
7013;SDS011;3547;50.774;12.918;2023-09-08T01:37:47;3.08;;;2.63;;
7013;SDS011;3547;50.774;12.918;2023-09-08T01:40:14;3.58;;;2.92;;
7013;SDS011;3547;50.774;12.918;2023-09-08T01:42:41;4.90;;;3.15;;
7013;SDS011;3547;50.774;12.918;2023-09-08T01:45:07;3.75;;;3.10;;
7013;SDS011;3547;50.774;12.918;2023-09-08T01:47:34;3.85;;;3.10;;
7013;SDS011;3547;50.774;12.918;2023-09-08T01:50:01;5.45;;;3.30;;
7013;SDS011;3547;50.774;12.918;2023-09-08T01:52:27;4.32;;;3.35;;
7013;SDS011;3547;50.774;12.918;2023-09-08T01:54:53;3.83;;;3.25;;
7013;SDS011;3547;50.774;12.918;2023-09-08T01:57:19;4.43;;;3.30;;
7013;SDS011;3547;50.774;12.918;2023-09-08T01:59:45;3.53;;;2.83;;
7013;SDS011;3547;50.774;12.918;2023-09-08T02:02:12;4.30;;;3.35;;
7013;SDS011;3547;50.774;12.918;2023-09-08T02:04:38;3.30;;;2.60;;
7013;SDS011;3547;50.774;12.918;2023-09-08T02:07:04;3.65;;;3.08;;
7013;SDS011;3547;50.774;12.918;2023-09-08T02:09:37;4.07;;;3.05;;
7013;SDS011;3547;50.774;12.918;2023-09-08T02:12:03;5.32;;;3.58;;
7013;SDS011;3547;50.774;12.918;2023-09-08T02:14:30;8.57;;;3.78;;
7013;SDS011;3547;50.774;12.918;2023-09-08T02:16:56;5.22;;;3.55;;
7013;SDS011;3547;50.774;12.918;2023-09-08T02:19:22;3.38;;;3.08;;
7013;SDS011;3547;50.774;12.918;2023-09-08T02:21:49;3.85;;;3.15;;
7013;SDS011;3547;50.774;12.918;2023-09-08T02:24:15;7.57;;;3.85;;
7013;SDS011;3547;50.774;12.918;2023-09-08T02:26:41;5.07;;;3.28;;
7013;SDS011;3547;50.774;12.918;2023-09-08T02:29:07;4.57;;;3.47;;
7013;SDS011;3547;50.774;12.918;2023-09-08T02:31:34;9.18;;;3.40;;
7013;SDS011;3547;50.774;12.918;2023-09-08T02:34:00;3.20;;;2.85;;
7013;SDS011;3547;50.774;12.918;2023-09-08T02:36:26;4.20;;;3.15;;
7013;SDS011;3547;50.774;12.918;2023-09-08T02:38:53;4.35;;;3.50;;
7013;SDS011;3547;50.774;12.918;2023-09-08T02:41:20;5.55;;;3.53;;
7013;SDS011;3547;50.774;12.918;2023-09-08T02:43:52;4.07;;;3.17;;
7013;SDS011;3547;50.774;12.918;2023-09-08T02:46:19;4.10;;;3.25;;
7013;SDS011;3547;50.774;12.918;2023-09-08T02:48:45;3.30;;;2.60;;
7013;SDS011;3547;50.774;12.918;2023-09-08T02:51:14;3.55;;;2.92;;
7013;SDS011;3547;50.774;12.918;2023-09-08T02:53:40;4.03;;;2.92;;
7013;SDS011;3547;50.774;12.918;2023-09-08T02:56:06;5.32;;;3.38;;
7013;SDS011;3547;50.774;12.918;2023-09-08T02:58:34;4.45;;;2.83;;
7013;SDS011;3547;50.774;12.918;2023-09-08T03:01:14;4.03;;;2.88;;
7013;SDS011;3547;50.774;12.918;2023-09-08T03:03:41;4.65;;;3.25;;
7013;SDS011;3547;50.774;12.918;2023-09-08T03:06:08;3.17;;;2.83;;
7013;SDS011;3547;50.774;12.918;2023-09-08T03:08:35;6.20;;;4.05;;
7013;SDS011;3547;50.774;12.918;2023-09-08T03:11:02;5.97;;;3.30;;
7013;SDS011;3547;50.774;12.918;2023-09-08T03:13:29;3.88;;;3.42;;
7013;SDS011;3547;50.774;12.918;2023-09-08T03:15:56;5.70;;;3.83;;
7013;SDS011;3547;50.774;12.918;2023-09-08T03:18:22;4.32;;;3.58;;
7013;SDS011;3547;50.774;12.918;2023-09-08T03:20:49;5.43;;;3.17;;
7013;SDS011;3547;50.774;12.918;2023-09-08T03:23:16;4.47;;;3.60;;
7013;SDS011;3547;50.774;12.918;2023-09-08T03:25:42;5.57;;;3.72;;
7013;SDS011;3547;50.774;12.918;2023-09-08T03:28:09;5.20;;;3.28;;
7013;SDS011;3547;50.774;12.918;2023-09-08T03:30:35;5.00;;;3.33;;
7013;SDS011;3547;50.774;12.918;2023-09-08T03:33:01;3.55;;;3.00;;
7013;SDS011;3547;50.774;12.918;2023-09-08T03:35:27;5.00;;;3.20;;
7013;SDS011;3547;50.774;12.918;2023-09-08T03:37:54;3.20;;;2.83;;
7013;SDS011;3547;50.774;12.918;2023-09-08T03:40:20;4.30;;;3.40;;
7013;SDS011;3547;50.774;12.918;2023-09-08T03:42:46;4.60;;;3.30;;
7013;SDS011;3547;50.774;12.918;2023-09-08T03:45:12;4.88;;;3.88;;
7013;SDS011;3547;50.774;12.918;2023-09-08T03:47:38;4.38;;;3.42;;
7013;SDS011;3547;50.774;12.918;2023-09-08T03:50:05;3.53;;;3.10;;
7013;SDS011;3547;50.774;12.918;2023-09-08T03:52:31;4.32;;;3.15;;
7013;SDS011;3547;50.774;12.918;2023-09-08T03:54:58;3.95;;;3.33;;
7013;SDS011;3547;50.774;12.918;2023-09-08T03:57:24;4.60;;;3.80;;
7013;SDS011;3547;50.774;12.918;2023-09-08T03:59:50;4.78;;;3.47;;
7013;SDS011;3547;50.774;12.918;2023-09-08T04:02:16;4.45;;;3.55;;
7013;SDS011;3547;50.774;12.918;2023-09-08T04:04:42;3.55;;;3.25;;
7013;SDS011;3547;50.774;12.918;2023-09-08T04:07:08;4.45;;;3.78;;
7013;SDS011;3547;50.774;12.918;2023-09-08T04:09:35;4.03;;;3.35;;
7013;SDS011;3547;50.774;12.918;2023-09-08T04:12:01;5.07;;;3.80;;
7013;SDS011;3547;50.774;12.918;2023-09-08T04:14:27;3.95;;;3.20;;
7013;SDS011;3547;50.774;12.918;2023-09-08T04:16:55;4.63;;;3.15;;
7013;SDS011;3547;50.774;12.918;2023-09-08T04:19:21;3.72;;;3.00;;
7013;SDS011;3547;50.774;12.918;2023-09-08T04:21:48;3.78;;;3.25;;
7013;SDS011;3547;50.774;12.918;2023-09-08T04:24:14;4.95;;;3.30;;
7013;SDS011;3547;50.774;12.918;2023-09-08T04:26:40;3.30;;;2.97;;
7013;SDS011;3547;50.774;12.918;2023-09-08T04:29:06;5.25;;;3.25;;
7013;SDS011;3547;50.774;12.918;2023-09-08T04:31:33;3.50;;;3.20;;
7013;SDS011;3547;50.774;12.918;2023-09-08T04:33:59;3.45;;;3.15;;
7013;SDS011;3547;50.774;12.918;2023-09-08T04:36:25;3.35;;;2.92;;
7013;SDS011;3547;50.774;12.918;2023-09-08T04:38:51;4.45;;;3.58;;
7013;SDS011;3547;50.774;12.918;2023-09-08T04:41:21;4.60;;;3.35;;
7013;SDS011;3547;50.774;12.918;2023-09-08T04:43:50;6.68;;;2.95;;
7013;SDS011;3547;50.774;12.918;2023-09-08T04:46:16;3.75;;;2.92;;
7013;SDS011;3547;50.774;12.918;2023-09-08T04:48:43;3.53;;;2.83;;
7013;SDS011;3547;50.774;12.918;2023-09-08T04:51:09;4.30;;;3.22;;
7013;SDS011;3547;50.774;12.918;2023-09-08T04:53:35;4.88;;;3.20;;
7013;SDS011;3547;50.774;12.918;2023-09-08T04:56:02;5.10;;;3.67;;
7013;SDS011;3547;50.774;12.918;2023-09-08T04:58:28;4.70;;;3.72;;
7013;SDS011;3547;50.774;12.918;2023-09-08T05:00:54;5.40;;;3.60;;
7013;SDS011;3547;50.774;12.918;2023-09-08T05:03:20;3.25;;;2.95;;
7013;SDS011;3547;50.774;12.918;2023-09-08T05:05:46;4.53;;;3.92;;
7013;SDS011;3547;50.774;12.918;2023-09-08T05:08:12;7.70;;;3.53;;
7013;SDS011;3547;50.774;12.918;2023-09-08T05:10:39;5.72;;;3.38;;
7013;SDS011;3547;50.774;12.918;2023-09-08T05:13:05;3.95;;;3.47;;
7013;SDS011;3547;50.774;12.918;2023-09-08T05:15:31;3.42;;;3.13;;
7013;SDS011;3547;50.774;12.918;2023-09-08T05:17:57;3.28;;;2.78;;
7013;SDS011;3547;50.774;12.918;2023-09-08T05:20:24;4.32;;;3.17;;
7013;SDS011;3547;50.774;12.918;2023-09-08T05:22:50;4.57;;;3.45;;
7013;SDS011;3547;50.774;12.918;2023-09-08T05:25:16;5.25;;;3.53;;
7013;SDS011;3547;50.774;12.918;2023-09-08T05:27:42;3.67;;;3.28;;
7013;SDS011;3547;50.774;12.918;2023-09-08T05:30:11;3.97;;;3.53;;
7013;SDS011;3547;50.774;12.918;2023-09-08T05:32:38;5.65;;;3.58;;
7013;SDS011;3547;50.774;12.918;2023-09-08T05:35:04;5.38;;;3.80;;
7013;SDS011;3547;50.774;12.918;2023-09-08T05:37:31;7.53;;;3.80;;
7013;SDS011;3547;50.774;12.918;2023-09-08T05:39:57;5.18;;;3.50;;
7013;SDS011;3547;50.774;12.918;2023-09-08T05:42:23;4.43;;;3.55;;
7013;SDS011;3547;50.774;12.918;2023-09-08T05:44:50;4.72;;;3.83;;
7013;SDS011;3547;50.774;12.918;2023-09-08T05:47:16;4.22;;;3.13;;
7013;SDS011;3547;50.774;12.918;2023-09-08T05:49:43;5.20;;;3.83;;
7013;SDS011;3547;50.774;12.918;2023-09-08T05:52:09;5.00;;;3.92;;
7013;SDS011;3547;50.774;12.918;2023-09-08T05:54:35;4.07;;;3.55;;
7013;SDS011;3547;50.774;12.918;2023-09-08T05:57:01;5.10;;;3.53;;
7013;SDS011;3547;50.774;12.918;2023-09-08T05:59:28;4.25;;;3.67;;
7013;SDS011;3547;50.774;12.918;2023-09-08T06:01:54;3.95;;;3.38;;
7013;SDS011;3547;50.774;12.918;2023-09-08T06:04:24;4.07;;;3.65;;
7013;SDS011;3547;50.774;12.918;2023-09-08T06:06:50;5.13;;;3.70;;
7013;SDS011;3547;50.774;12.918;2023-09-08T06:09:19;4.80;;;3.70;;
7013;SDS011;3547;50.774;12.918;2023-09-08T06:11:46;4.85;;;3.60;;
7013;SDS011;3547;50.774;12.918;2023-09-08T06:14:13;3.90;;;3.50;;
7013;SDS011;3547;50.774;12.918;2023-09-08T06:16:39;4.35;;;3.45;;
7013;SDS011;3547;50.774;12.918;2023-09-08T06:19:05;7.20;;;3.03;;
7013;SDS011;3547;50.774;12.918;2023-09-08T06:21:32;7.55;;;3.95;;
7013;SDS011;3547;50.774;12.918;2023-09-08T06:23:58;4.20;;;3.30;;
7013;SDS011;3547;50.774;12.918;2023-09-08T06:26:24;3.80;;;3.03;;
7013;SDS011;3547;50.774;12.918;2023-09-08T06:32:13;4.03;;;3.17;;
7013;SDS011;3547;50.774;12.918;2023-09-08T06:34:40;3.13;;;2.83;;
7013;SDS011;3547;50.774;12.918;2023-09-08T06:37:06;5.15;;;3.45;;
7013;SDS011;3547;50.774;12.918;2023-09-08T06:39:32;5.07;;;3.47;;
7013;SDS011;3547;50.774;12.918;2023-09-08T06:41:58;5.13;;;2.92;;
7013;SDS011;3547;50.774;12.918;2023-09-08T06:44:25;4.72;;;3.13;;
7013;SDS011;3547;50.774;12.918;2023-09-08T06:46:51;3.88;;;3.40;;
7013;SDS011;3547;50.774;12.918;2023-09-08T06:49:17;3.70;;;3.25;;
7013;SDS011;3547;50.774;12.918;2023-09-08T06:51:43;3.30;;;2.88;;
7013;SDS011;3547;50.774;12.918;2023-09-08T06:54:09;3.40;;;3.03;;
7013;SDS011;3547;50.774;12.918;2023-09-08T06:56:36;4.53;;;3.00;;
7013;SDS011;3547;50.774;12.918;2023-09-08T06:59:03;5.22;;;3.38;;
7013;SDS011;3547;50.774;12.918;2023-09-08T07:01:29;3.30;;;3.00;;
7013;SDS011;3547;50.774;12.918;2023-09-08T07:03:55;3.65;;;3.05;;
7013;SDS011;3547;50.774;12.918;2023-09-08T07:06:21;4.00;;;3.53;;
7013;SDS011;3547;50.774;12.918;2023-09-08T07:12:10;5.70;;;3.10;;
7013;SDS011;3547;50.774;12.918;2023-09-08T07:14:36;3.58;;;3.25;;
7013;SDS011;3547;50.774;12.918;2023-09-08T07:17:03;3.95;;;3.33;;
7013;SDS011;3547;50.774;12.918;2023-09-08T07:19:29;3.70;;;3.28;;
7013;SDS011;3547;50.774;12.918;2023-09-08T07:21:55;4.38;;;3.30;;
7013;SDS011;3547;50.774;12.918;2023-09-08T07:24:22;4.05;;;2.72;;
7013;SDS011;3547;50.774;12.918;2023-09-08T07:26:48;4.15;;;3.28;;
7013;SDS011;3547;50.774;12.918;2023-09-08T07:29:14;3.33;;;2.40;;
7013;SDS011;3547;50.774;12.918;2023-09-08T07:31:40;4.03;;;3.13;;
7013;SDS011;3547;50.774;12.918;2023-09-08T07:34:07;6.00;;;3.30;;
7013;SDS011;3547;50.774;12.918;2023-09-08T07:36:33;3.50;;;3.20;;
7013;SDS011;3547;50.774;12.918;2023-09-08T07:39:01;3.38;;;2.80;;
7013;SDS011;3547;50.774;12.918;2023-09-08T07:41:27;3.67;;;3.38;;
7013;SDS011;3547;50.774;12.918;2023-09-08T07:43:53;3.65;;;2.95;;
7013;SDS011;3547;50.774;12.918;2023-09-08T07:46:19;6.03;;;3.15;;
7013;SDS011;3547;50.774;12.918;2023-09-08T07:48:45;5.75;;;3.15;;
7013;SDS011;3547;50.774;12.918;2023-09-08T07:51:12;3.90;;;3.03;;
7013;SDS011;3547;50.774;12.918;2023-09-08T07:53:38;4.13;;;3.50;;
7013;SDS011;3547;50.774;12.918;2023-09-08T07:56:04;3.20;;;2.85;;
7013;SDS011;3547;50.774;12.918;2023-09-08T07:58:31;3.00;;;2.72;;
7013;SDS011;3547;50.774;12.918;2023-09-08T08:00:57;5.95;;;2.85;;
7013;SDS011;3547;50.774;12.918;2023-09-08T08:03:23;2.95;;;2.63;;
7013;SDS011;3547;50.774;12.918;2023-09-08T08:05:50;2.95;;;2.60;;
7013;SDS011;3547;50.774;12.918;2023-09-08T08:08:16;3.15;;;2.70;;
7013;SDS011;3547;50.774;12.918;2023-09-08T08:10:42;6.40;;;3.28;;
7013;SDS011;3547;50.774;12.918;2023-09-08T08:13:08;4.50;;;2.53;;
7013;SDS011;3547;50.774;12.918;2023-09-08T08:15:36;5.40;;;3.00;;
7013;SDS011;3547;50.774;12.918;2023-09-08T08:18:04;5.13;;;2.30;;
7013;SDS011;3547;50.774;12.918;2023-09-08T08:20:31;3.53;;;2.40;;
7013;SDS011;3547;50.774;12.918;2023-09-08T08:23:03;3.08;;;2.78;;
7013;SDS011;3547;50.774;12.918;2023-09-08T08:25:30;2.58;;;2.38;;
7013;SDS011;3547;50.774;12.918;2023-09-08T08:27:56;3.38;;;2.90;;
7013;SDS011;3547;50.774;12.918;2023-09-08T08:30:24;4.80;;;2.70;;
7013;SDS011;3547;50.774;12.918;2023-09-08T08:32:50;3.30;;;2.58;;
7013;SDS011;3547;50.774;12.918;2023-09-08T08:35:19;4.35;;;2.55;;
7013;SDS011;3547;50.774;12.918;2023-09-08T08:37:45;3.05;;;2.75;;
7013;SDS011;3547;50.774;12.918;2023-09-08T08:40:12;2.47;;;2.25;;
7013;SDS011;3547;50.774;12.918;2023-09-08T08:42:38;5.32;;;3.00;;
7013;SDS011;3547;50.774;12.918;2023-09-08T08:45:05;3.10;;;2.22;;
7013;SDS011;3547;50.774;12.918;2023-09-08T08:47:32;3.88;;;2.35;;
7013;SDS011;3547;50.774;12.918;2023-09-08T08:50:00;5.05;;;2.35;;
7013;SDS011;3547;50.774;12.918;2023-09-08T08:52:27;2.45;;;2.20;;
7013;SDS011;3547;50.774;12.918;2023-09-08T08:54:54;2.92;;;2.60;;
7013;SDS011;3547;50.774;12.918;2023-09-08T08:57:21;4.20;;;2.53;;
7013;SDS011;3547;50.774;12.918;2023-09-08T08:59:49;5.00;;;2.35;;
7013;SDS011;3547;50.774;12.918;2023-09-08T09:02:18;3.47;;;2.20;;
7013;SDS011;3547;50.774;12.918;2023-09-08T09:04:45;4.78;;;2.70;;
7013;SDS011;3547;50.774;12.918;2023-09-08T09:07:12;2.70;;;2.30;;
7013;SDS011;3547;50.774;12.918;2023-09-08T09:09:39;2.40;;;2.20;;
7013;SDS011;3547;50.774;12.918;2023-09-08T09:12:05;3.10;;;2.78;;
7013;SDS011;3547;50.774;12.918;2023-09-08T09:14:32;2.42;;;2.15;;
7013;SDS011;3547;50.774;12.918;2023-09-08T09:16:59;2.45;;;2.10;;
7013;SDS011;3547;50.774;12.918;2023-09-08T09:19:26;2.15;;;1.95;;
7013;SDS011;3547;50.774;12.918;2023-09-08T09:21:54;2.22;;;2.03;;
7013;SDS011;3547;50.774;12.918;2023-09-08T09:24:34;4.68;;;2.67;;
7013;SDS011;3547;50.774;12.918;2023-09-08T09:27:09;2.78;;;2.13;;
7013;SDS011;3547;50.774;12.918;2023-09-08T09:29:46;3.35;;;2.40;;
7013;SDS011;3547;50.774;12.918;2023-09-08T09:32:13;3.33;;;2.42;;
7013;SDS011;3547;50.774;12.918;2023-09-08T09:34:46;4.13;;;2.80;;
7013;SDS011;3547;50.774;12.918;2023-09-08T09:37:23;3.08;;;2.42;;
7013;SDS011;3547;50.774;12.918;2023-09-08T09:39:50;2.92;;;2.72;;
7013;SDS011;3547;50.774;12.918;2023-09-08T09:42:22;2.70;;;2.17;;
7013;SDS011;3547;50.774;12.918;2023-09-08T09:44:49;2.55;;;2.05;;
7013;SDS011;3547;50.774;12.918;2023-09-08T09:47:19;4.63;;;2.30;;
7013;SDS011;3547;50.774;12.918;2023-09-08T09:49:46;2.90;;;2.42;;
7013;SDS011;3547;50.774;12.918;2023-09-08T09:59:01;3.60;;;2.78;;
7013;SDS011;3547;50.774;12.918;2023-09-08T10:01:29;2.15;;;1.95;;
7013;SDS011;3547;50.774;12.918;2023-09-08T10:03:57;3.25;;;2.28;;
7013;SDS011;3547;50.774;12.918;2023-09-08T10:09:28;2.67;;;2.20;;
7013;SDS011;3547;50.774;12.918;2023-09-08T10:11:54;2.35;;;2.15;;
7013;SDS011;3547;50.774;12.918;2023-09-08T10:14:25;3.30;;;2.47;;
7013;SDS011;3547;50.774;12.918;2023-09-08T10:16:54;2.88;;;2.50;;
7013;SDS011;3547;50.774;12.918;2023-09-08T10:19:24;2.50;;;2.10;;
7013;SDS011;3547;50.774;12.918;2023-09-08T10:21:52;4.30;;;2.35;;
7013;SDS011;3547;50.774;12.918;2023-09-08T10:26:54;2.70;;;2.33;;
7013;SDS011;3547;50.774;12.918;2023-09-08T10:29:45;5.07;;;2.30;;
7013;SDS011;3547;50.774;12.918;2023-09-08T10:32:13;3.10;;;2.33;;
7013;SDS011;3547;50.774;12.918;2023-09-08T10:34:40;3.63;;;2.60;;
7013;SDS011;3547;50.774;12.918;2023-09-08T10:37:23;2.70;;;2.10;;
7013;SDS011;3547;50.774;12.918;2023-09-08T10:39:51;2.28;;;2.08;;
7013;SDS011;3547;50.774;12.918;2023-09-08T10:44:44;2.92;;;2.22;;
7013;SDS011;3547;50.774;12.918;2023-09-08T10:47:22;2.22;;;2.03;;
7013;SDS011;3547;50.774;12.918;2023-09-08T10:49:52;4.13;;;2.25;;
7013;SDS011;3547;50.774;12.918;2023-09-08T10:52:23;3.20;;;2.42;;
7013;SDS011;3547;50.774;12.918;2023-09-08T10:54:51;6.00;;;2.38;;
7013;SDS011;3547;50.774;12.918;2023-09-08T10:57:20;2.40;;;2.20;;
7013;SDS011;3547;50.774;12.918;2023-09-08T11:02:34;3.28;;;2.30;;
7013;SDS011;3547;50.774;12.918;2023-09-08T11:05:09;4.30;;;1.80;;
7013;SDS011;3547;50.774;12.918;2023-09-08T11:07:42;3.80;;;2.40;;
7013;SDS011;3547;50.774;12.918;2023-09-08T11:10:09;3.97;;;2.13;;
7013;SDS011;3547;50.774;12.918;2023-09-08T11:12:37;2.45;;;2.10;;
7013;SDS011;3547;50.774;12.918;2023-09-08T11:15:07;2.67;;;2.40;;
7013;SDS011;3547;50.774;12.918;2023-09-08T11:17:37;3.40;;;2.30;;
7013;SDS011;3547;50.774;12.918;2023-09-08T11:20:07;2.95;;;2.28;;
7013;SDS011;3547;50.774;12.918;2023-09-08T11:22:36;2.20;;;1.92;;
7013;SDS011;3547;50.774;12.918;2023-09-08T11:25:03;2.55;;;2.00;;
7013;SDS011;3547;50.774;12.918;2023-09-08T11:27:33;2.30;;;2.10;;
7013;SDS011;3547;50.774;12.918;2023-09-08T11:30:00;2.22;;;1.90;;
7013;SDS011;3547;50.774;12.918;2023-09-08T11:32:33;2.88;;;2.05;;
7013;SDS011;3547;50.774;12.918;2023-09-08T11:35:04;2.90;;;2.05;;
7013;SDS011;3547;50.774;12.918;2023-09-08T11:37:34;3.35;;;2.10;;
7013;SDS011;3547;50.774;12.918;2023-09-08T11:40:04;3.05;;;1.80;;
7013;SDS011;3547;50.774;12.918;2023-09-08T11:42:41;2.33;;;1.63;;
7013;SDS011;3547;50.774;12.918;2023-09-08T11:45:13;2.17;;;1.73;;
7013;SDS011;3547;50.774;12.918;2023-09-08T11:47:40;2.63;;;2.00;;
7013;SDS011;3547;50.774;12.918;2023-09-08T11:50:11;2.22;;;1.88;;
7013;SDS011;3547;50.774;12.918;2023-09-08T11:52:44;2.30;;;1.73;;
7013;SDS011;3547;50.774;12.918;2023-09-08T11:55:11;2.65;;;2.00;;
7013;SDS011;3547;50.774;12.918;2023-09-08T11:57:39;1.95;;;1.75;;
7013;SDS011;3547;50.774;12.918;2023-09-08T12:00:07;2.20;;;1.85;;
7013;SDS011;3547;50.774;12.918;2023-09-08T12:02:36;2.92;;;2.00;;
7013;SDS011;3547;50.774;12.918;2023-09-08T12:05:03;2.40;;;1.90;;
7013;SDS011;3547;50.774;12.918;2023-09-08T12:07:29;2.42;;;1.75;;
7013;SDS011;3547;50.774;12.918;2023-09-08T12:09:56;2.97;;;1.95;;
7013;SDS011;3547;50.774;12.918;2023-09-08T12:12:25;2.67;;;2.20;;
7013;SDS011;3547;50.774;12.918;2023-09-08T12:14:52;3.33;;;2.30;;
7013;SDS011;3547;50.774;12.918;2023-09-08T12:17:20;1.83;;;1.70;;
7013;SDS011;3547;50.774;12.918;2023-09-08T12:19:49;3.88;;;2.53;;
7013;SDS011;3547;50.774;12.918;2023-09-08T12:22:16;1.70;;;1.60;;
7013;SDS011;3547;50.774;12.918;2023-09-08T12:27:19;4.20;;;2.10;;
7013;SDS011;3547;50.774;12.918;2023-09-08T12:29:56;1.90;;;1.80;;
7013;SDS011;3547;50.774;12.918;2023-09-08T12:32:23;1.85;;;1.70;;
7013;SDS011;3547;50.774;12.918;2023-09-08T12:34:50;2.13;;;1.90;;
7013;SDS011;3547;50.774;12.918;2023-09-08T12:37:24;2.80;;;1.70;;
7013;SDS011;3547;50.774;12.918;2023-09-08T12:39:53;1.92;;;1.73;;
7013;SDS011;3547;50.774;12.918;2023-09-08T12:42:19;2.08;;;1.88;;
7013;SDS011;3547;50.774;12.918;2023-09-08T12:44:46;2.22;;;2.00;;
7013;SDS011;3547;50.774;12.918;2023-09-08T12:47:12;2.72;;;1.98;;
7013;SDS011;3547;50.774;12.918;2023-09-08T12:49:39;2.58;;;2.00;;
7013;SDS011;3547;50.774;12.918;2023-09-08T12:52:05;3.15;;;1.92;;
7013;SDS011;3547;50.774;12.918;2023-09-08T12:54:32;2.17;;;1.73;;
7013;SDS011;3547;50.774;12.918;2023-09-08T12:56:58;3.22;;;2.03;;
7013;SDS011;3547;50.774;12.918;2023-09-08T12:59:24;1.88;;;1.75;;
7013;SDS011;3547;50.774;12.918;2023-09-08T13:01:51;2.72;;;1.95;;
7013;SDS011;3547;50.774;12.918;2023-09-08T13:04:18;2.55;;;1.95;;
7013;SDS011;3547;50.774;12.918;2023-09-08T13:06:44;2.13;;;1.92;;
7013;SDS011;3547;50.774;12.918;2023-09-08T13:09:11;2.22;;;1.88;;
7013;SDS011;3547;50.774;12.918;2023-09-08T13:11:37;2.67;;;1.80;;
7013;SDS011;3547;50.774;12.918;2023-09-08T13:14:03;2.22;;;1.85;;
7013;SDS011;3547;50.774;12.918;2023-09-08T13:16:29;2.42;;;2.00;;
7013;SDS011;3547;50.774;12.918;2023-09-08T13:18:56;3.78;;;2.13;;
7013;SDS011;3547;50.774;12.918;2023-09-08T13:21:22;5.43;;;2.17;;
7013;SDS011;3547;50.774;12.918;2023-09-08T13:23:48;2.45;;;2.20;;
7013;SDS011;3547;50.774;12.918;2023-09-08T13:26:14;1.92;;;1.80;;
7013;SDS011;3547;50.774;12.918;2023-09-08T13:28:40;1.80;;;1.70;;
7013;SDS011;3547;50.774;12.918;2023-09-08T13:31:08;3.58;;;2.55;;
7013;SDS011;3547;50.774;12.918;2023-09-08T13:33:34;5.70;;;1.83;;
7013;SDS011;3547;50.774;12.918;2023-09-08T13:36:00;2.22;;;2.03;;
7013;SDS011;3547;50.774;12.918;2023-09-08T13:38:26;2.25;;;1.98;;
7013;SDS011;3547;50.774;12.918;2023-09-08T13:40:53;4.07;;;2.42;;
7013;SDS011;3547;50.774;12.918;2023-09-08T13:43:19;3.00;;;2.38;;
7013;SDS011;3547;50.774;12.918;2023-09-08T13:45:53;4.43;;;2.20;;
7013;SDS011;3547;50.774;12.918;2023-09-08T13:51:42;2.55;;;2.05;;
7013;SDS011;3547;50.774;12.918;2023-09-08T13:54:09;2.65;;;2.05;;
7013;SDS011;3547;50.774;12.918;2023-09-08T13:56:42;4.45;;;2.35;;
7013;SDS011;3547;50.774;12.918;2023-09-08T13:59:13;2.65;;;2.22;;
7013;SDS011;3547;50.774;12.918;2023-09-08T14:01:40;4.03;;;2.45;;
7013;SDS011;3547;50.774;12.918;2023-09-08T14:04:07;3.67;;;2.20;;
7013;SDS011;3547;50.774;12.918;2023-09-08T14:06:35;2.97;;;2.15;;
7013;SDS011;3547;50.774;12.918;2023-09-08T14:09:10;2.17;;;1.95;;
7013;SDS011;3547;50.774;12.918;2023-09-08T14:11:40;3.20;;;2.50;;
7013;SDS011;3547;50.774;12.918;2023-09-08T14:14:06;3.35;;;2.58;;
7013;SDS011;3547;50.774;12.918;2023-09-08T14:16:33;2.70;;;1.92;;
7013;SDS011;3547;50.774;12.918;2023-09-08T14:18:59;2.70;;;2.33;;
7013;SDS011;3547;50.774;12.918;2023-09-08T14:21:26;3.03;;;2.72;;
7013;SDS011;3547;50.774;12.918;2023-09-08T14:23:52;1.92;;;1.75;;
7013;SDS011;3547;50.774;12.918;2023-09-08T14:26:18;3.30;;;2.25;;
7013;SDS011;3547;50.774;12.918;2023-09-08T14:28:55;2.97;;;2.40;;
7013;SDS011;3547;50.774;12.918;2023-09-08T14:31:27;2.80;;;2.60;;
7013;SDS011;3547;50.774;12.918;2023-09-08T14:37:19;2.42;;;2.22;;
7013;SDS011;3547;50.774;12.918;2023-09-08T14:39:46;2.63;;;2.28;;
7013;SDS011;3547;50.774;12.918;2023-09-08T14:42:12;3.25;;;2.53;;
7013;SDS011;3547;50.774;12.918;2023-09-08T14:44:42;3.05;;;2.53;;
7013;SDS011;3547;50.774;12.918;2023-09-08T14:50:31;2.75;;;2.50;;
7013;SDS011;3547;50.774;12.918;2023-09-08T14:52:57;2.65;;;2.40;;
7013;SDS011;3547;50.774;12.918;2023-09-08T14:55:24;3.58;;;2.75;;
7013;SDS011;3547;50.774;12.918;2023-09-08T14:57:50;3.03;;;2.72;;
7013;SDS011;3547;50.774;12.918;2023-09-08T15:00:16;2.70;;;2.50;;
7013;SDS011;3547;50.774;12.918;2023-09-08T15:02:43;2.90;;;2.70;;
7013;SDS011;3547;50.774;12.918;2023-09-08T15:05:10;3.08;;;2.60;;
7013;SDS011;3547;50.774;12.918;2023-09-08T15:07:37;3.00;;;2.70;;
7013;SDS011;3547;50.774;12.918;2023-09-08T15:10:03;3.60;;;3.28;;
7013;SDS011;3547;50.774;12.918;2023-09-08T15:12:29;4.07;;;3.00;;
7013;SDS011;3547;50.774;12.918;2023-09-08T15:14:59;3.30;;;2.97;;
7013;SDS011;3547;50.774;12.918;2023-09-08T15:17:25;3.15;;;2.85;;
7013;SDS011;3547;50.774;12.918;2023-09-08T15:19:51;3.35;;;3.05;;
7013;SDS011;3547;50.774;12.918;2023-09-08T15:22:17;3.30;;;3.00;;
7013;SDS011;3547;50.774;12.918;2023-09-08T15:24:43;4.50;;;3.10;;
7013;SDS011;3547;50.774;12.918;2023-09-08T15:27:10;4.03;;;2.90;;
7013;SDS011;3547;50.774;12.918;2023-09-08T15:29:36;3.63;;;3.33;;
7013;SDS011;3547;50.774;12.918;2023-09-08T15:32:02;4.93;;;3.40;;
7013;SDS011;3547;50.774;12.918;2023-09-08T15:34:29;3.50;;;3.10;;
7013;SDS011;3547;50.774;12.918;2023-09-08T15:36:55;3.50;;;2.90;;
7013;SDS011;3547;50.774;12.918;2023-09-08T15:39:21;2.78;;;2.55;;
7013;SDS011;3547;50.774;12.918;2023-09-08T15:41:47;3.13;;;2.83;;
7013;SDS011;3547;50.774;12.918;2023-09-08T15:44:14;4.20;;;3.08;;